Time;durP1;ratioP1;P1;durP2;ratioP2;P2;SDS_P1;SDS_P2;PMS_P1;PMS_P2;Temp;Humidity;BMP_temperature;BMP_pressure;BME280_temperature;BME280_humidity;BME280_pressure;Samples;Min_cycle;Max_cycle;Signal;HPM_P1;HPM_P2
2023/04/28 00:00:50;;;;;;;20.75;13.52;;;;;;;;;;4899881;28;20059;-65
2023/04/28 00:03:19;;;;;;;21.25;12.98;;;;;;;;;;4919262;28;20187;-65
2023/04/28 00:05:46;;;;;;;20.30;12.25;;;;;;;;;;4908412;28;20154;-65
2023/04/28 00:08:12;;;;;;;24.10;13.82;;;;;;;;;;4909615;28;20075;-64
2023/04/28 00:10:40;;;;;;;21.73;13.02;;;;;;;;;;4922009;28;20079;-64
2023/04/28 00:13:08;;;;;;;23.98;13.43;;;;;;;;;;4909653;28;20087;-64
2023/04/28 00:15:34;;;;;;;21.25;12.82;;;;;;;;;;4912208;28;20145;-65
2023/04/28 00:18:00;;;;;;;23.38;13.60;;;;;;;;;;4910303;28;20064;-63
2023/04/28 00:20:26;;;;;;;23.85;14.65;;;;;;;;;;4910637;28;20091;-66
2023/04/28 00:22:53;;;;;;;24.98;13.95;;;;;;;;;;4908507;28;20060;-66
2023/04/28 00:25:19;;;;;;;24.17;14.45;;;;;;;;;;4910232;28;20074;-66
2023/04/28 00:27:45;;;;;;;26.40;14.27;;;;;;;;;;4907289;28;20040;-65
2023/04/28 00:30:11;;;;;;;20.17;14.48;;;;;;;;;;4909638;28;20052;-65
2023/04/28 00:32:37;;;;;;;21.83;15.02;;;;;;;;;;4911627;28;20059;-65
2023/04/28 00:35:03;;;;;;;19.90;15.00;;;;;;;;;;4912150;28;20047;-65
2023/04/28 00:37:29;;;;;;;21.73;14.82;;;;;;;;;;4906028;28;20386;-64
2023/04/28 00:39:55;;;;;;;24.48;14.85;;;;;;;;;;4907949;28;20119;-64
2023/04/28 00:42:22;;;;;;;23.00;15.25;;;;;;;;;;4907800;28;20364;-64
2023/04/28 00:44:47;;;;;;;20.75;14.75;;;;;;;;;;4905307;28;20075;-65
2023/04/28 00:47:16;;;;;;;25.38;14.82;;;;;;;;;;4909756;28;20055;-65
2023/04/28 00:49:42;;;;;;;23.95;14.68;;;;;;;;;;4912316;28;20051;-63
2023/04/28 00:52:09;;;;;;;21.52;14.88;;;;;;;;;;4913709;28;21959;-64
2023/04/28 00:54:35;;;;;;;29.20;16.90;;;;;;;;;;4911258;28;20602;-65
2023/04/28 00:57:03;;;;;;;28.48;17.38;;;;;;;;;;4923737;28;20083;-64
2023/04/28 00:59:30;;;;;;;22.83;15.43;;;;;;;;;;4911902;28;20671;-64
2023/04/28 01:01:57;;;;;;;26.38;16.10;;;;;;;;;;4913057;28;20505;-65
2023/04/28 01:04:23;;;;;;;27.08;16.85;;;;;;;;;;4912297;28;20476;-64
2023/04/28 01:06:52;;;;;;;24.23;15.50;;;;;;;;;;4915146;29;20048;-63
2023/04/28 01:09:18;;;;;;;24.42;16.17;;;;;;;;;;4910743;28;20064;-64
2023/04/28 01:11:44;;;;;;;22.35;16.05;;;;;;;;;;4925797;28;20051;-65
2023/04/28 01:14:10;;;;;;;26.10;16.30;;;;;;;;;;4908976;28;20059;-64
2023/04/28 01:16:37;;;;;;;24.85;16.35;;;;;;;;;;4911551;29;20183;-65
2023/04/28 01:19:08;;;;;;;24.02;16.75;;;;;;;;;;4911982;28;20063;-64
2023/04/28 01:21:34;;;;;;;23.25;16.90;;;;;;;;;;4916972;28;20048;-64
2023/04/28 01:24:00;;;;;;;24.35;16.02;;;;;;;;;;4909978;28;20059;-64
2023/04/28 01:26:27;;;;;;;26.65;16.05;;;;;;;;;;4924315;28;20067;-65
2023/04/28 01:28:53;;;;;;;26.38;17.35;;;;;;;;;;4908063;28;20692;-64
2023/04/28 01:31:19;;;;;;;23.95;16.80;;;;;;;;;;4909669;28;20068;-63
2023/04/28 01:33:46;;;;;;;21.08;16.40;;;;;;;;;;4909175;28;20192;-63
2023/04/28 01:36:13;;;;;;;29.83;17.42;;;;;;;;;;4910258;29;20132;-64
2023/04/28 01:38:39;;;;;;;23.65;16.48;;;;;;;;;;4911447;28;20052;-64
2023/04/28 01:41:05;;;;;;;33.40;16.65;;;;;;;;;;4910149;29;20536;-63
2023/04/28 01:43:31;;;;;;;26.08;16.02;;;;;;;;;;4911155;28;20055;-64
2023/04/28 01:45:57;;;;;;;26.55;17.17;;;;;;;;;;4908262;28;20059;-63
2023/04/28 01:48:23;;;;;;;28.98;17.33;;;;;;;;;;4909533;28;20676;-64
2023/04/28 01:50:49;;;;;;;25.88;16.83;;;;;;;;;;4913151;28;20056;-64
2023/04/28 01:53:19;;;;;;;24.20;16.52;;;;;;;;;;4910419;28;20143;-63
2023/04/28 01:55:46;;;;;;;23.58;16.42;;;;;;;;;;4912074;28;20044;-63
2023/04/28 01:58:12;;;;;;;24.02;16.88;;;;;;;;;;4910362;28;20083;-65
2023/04/28 02:00:38;;;;;;;28.85;16.50;;;;;;;;;;4910529;28;20503;-65
2023/04/28 02:03:04;;;;;;;23.35;15.75;;;;;;;;;;4910757;28;20537;-64
2023/04/28 02:05:32;;;;;;;20.52;14.57;;;;;;;;;;4908251;28;20644;-65
2023/04/28 02:07:58;;;;;;;23.10;15.77;;;;;;;;;;4911978;28;20096;-64
2023/04/28 02:10:24;;;;;;;24.92;15.95;;;;;;;;;;4918464;28;20056;-64
2023/04/28 02:12:50;;;;;;;21.02;14.30;;;;;;;;;;4910208;28;20063;-64
2023/04/28 02:15:16;;;;;;;26.02;14.63;;;;;;;;;;4911866;28;20110;-63
2023/04/28 02:17:42;;;;;;;28.33;15.25;;;;;;;;;;4924365;28;20063;-63
2023/04/28 02:20:09;;;;;;;23.27;13.50;;;;;;;;;;4910142;28;20566;-63
2023/04/28 02:22:36;;;;;;;22.77;13.95;;;;;;;;;;4913618;28;20055;-65
2023/04/28 02:25:04;;;;;;;28.23;14.00;;;;;;;;;;4910929;28;20055;-65
2023/04/28 02:27:31;;;;;;;20.95;13.07;;;;;;;;;;4910215;28;20424;-64
2023/04/28 02:29:58;;;;;;;24.42;15.15;;;;;;;;;;4910536;28;20497;-63
2023/04/28 02:32:23;;;;;;;20.95;13.85;;;;;;;;;;4909421;28;20052;-63
2023/04/28 02:34:55;;;;;;;21.98;14.10;;;;;;;;;;4908560;28;20059;-64
2023/04/28 02:37:22;;;;;;;22.73;13.60;;;;;;;;;;4912917;28;20059;-63
2023/04/28 02:39:48;;;;;;;20.48;14.77;;;;;;;;;;4911080;28;20146;-64
2023/04/28 02:42:15;;;;;;;27.45;15.27;;;;;;;;;;4911393;28;20508;-64
2023/04/28 02:44:41;;;;;;;26.85;15.52;;;;;;;;;;4910692;28;20062;-64
2023/04/28 02:47:07;;;;;;;23.77;14.70;;;;;;;;;;4911271;28;20065;-64
2023/04/28 02:49:33;;;;;;;27.35;16.05;;;;;;;;;;4910314;28;20069;-63
2023/04/28 02:51:59;;;;;;;23.90;15.35;;;;;;;;;;4909420;28;20051;-64
2023/04/28 02:54:28;;;;;;;24.38;16.25;;;;;;;;;;4910558;28;20067;-64
2023/04/28 02:56:55;;;;;;;26.67;18.42;;;;;;;;;;4908226;28;20135;-64
2023/04/28 02:59:22;;;;;;;30.58;18.38;;;;;;;;;;4909842;28;20067;-65
2023/04/28 03:01:48;;;;;;;31.30;18.13;;;;;;;;;;4908939;28;20195;-64
2023/04/28 03:04:15;;;;;;;27.02;16.85;;;;;;;;;;4909074;28;20063;-67
2023/04/28 03:06:41;;;;;;;24.23;16.13;;;;;;;;;;4909972;28;20060;-65
2023/04/28 03:09:08;;;;;;;25.65;16.65;;;;;;;;;;4909049;28;20060;-66
2023/04/28 03:11:35;;;;;;;27.35;15.70;;;;;;;;;;4910661;29;20047;-64
2023/04/28 03:14:01;;;;;;;26.25;15.73;;;;;;;;;;4907004;28;20083;-64
2023/04/28 03:16:27;;;;;;;21.85;15.18;;;;;;;;;;4906809;29;20048;-64
2023/04/28 03:18:54;;;;;;;24.33;15.18;;;;;;;;;;4910975;29;20059;-64
2023/04/28 03:21:20;;;;;;;26.88;15.40;;;;;;;;;;4914315;28;20067;-66
2023/04/28 03:23:46;;;;;;;25.48;14.27;;;;;;;;;;4907978;28;20063;-66
2023/04/28 03:26:12;;;;;;;23.63;15.32;;;;;;;;;;4910019;28;20047;-64
2023/04/28 03:28:38;;;;;;;25.13;15.95;;;;;;;;;;4905583;28;20075;-65
2023/04/28 03:31:05;;;;;;;24.08;15.73;;;;;;;;;;4908490;28;20093;-64
2023/04/28 03:33:31;;;;;;;26.83;17.33;;;;;;;;;;4908025;28;20552;-64
2023/04/28 03:35:58;;;;;;;29.25;16.75;;;;;;;;;;4911703;28;20043;-64
2023/04/28 03:38:24;;;;;;;27.30;16.85;;;;;;;;;;4909414;28;20176;-64
2023/04/28 03:40:50;;;;;;;25.63;17.33;;;;;;;;;;4908851;28;20644;-65
2023/04/28 03:43:16;;;;;;;30.08;16.92;;;;;;;;;;4909603;28;20059;-63
2023/04/28 03:45:42;;;;;;;24.75;16.92;;;;;;;;;;4909613;28;20047;-64
2023/04/28 03:48:08;;;;;;;29.80;16.08;;;;;;;;;;4910459;28;20062;-65
2023/04/28 03:50:34;;;;;;;30.55;16.85;;;;;;;;;;4921818;28;20428;-63
2023/04/28 03:53:01;;;;;;;27.85;16.40;;;;;;;;;;4920726;28;20051;-64
2023/04/28 03:55:26;;;;;;;29.33;17.02;;;;;;;;;;4909118;28;20136;-62
2023/04/28 03:57:53;;;;;;;21.48;15.98;;;;;;;;;;4906166;28;20062;-64
2023/04/28 04:00:19;;;;;;;21.98;14.65;;;;;;;;;;4908753;28;21995;-63
2023/04/28 04:02:45;;;;;;;30.90;16.67;;;;;;;;;;4908119;28;20094;-63
2023/04/28 04:05:11;;;;;;;24.77;15.88;;;;;;;;;;4907179;29;20488;-64
2023/04/28 04:07:37;;;;;;;26.88;16.83;;;;;;;;;;4908496;28;20507;-63
2023/04/28 04:10:03;;;;;;;27.85;17.23;;;;;;;;;;4903528;28;20056;-63
2023/04/28 04:12:31;;;;;;;29.90;17.85;;;;;;;;;;4917499;28;20124;-64
2023/04/28 04:14:57;;;;;;;25.55;16.65;;;;;;;;;;4909538;28;20155;-64
2023/04/28 04:17:23;;;;;;;25.05;16.60;;;;;;;;;;4908556;28;20071;-63
2023/04/28 04:19:50;;;;;;;27.38;17.27;;;;;;;;;;4911230;28;20063;-63
2023/04/28 04:22:16;;;;;;;30.20;19.15;;;;;;;;;;4909530;28;20059;-64
2023/04/28 04:24:42;;;;;;;30.50;20.00;;;;;;;;;;4909905;28;20081;-63
2023/04/28 04:27:08;;;;;;;27.83;19.42;;;;;;;;;;4908743;28;20070;-64
2023/04/28 04:29:34;;;;;;;36.25;20.55;;;;;;;;;;4912507;29;20131;-65
2023/04/28 04:32:00;;;;;;;31.25;21.20;;;;;;;;;;4908835;28;20114;-63
2023/04/28 04:34:26;;;;;;;25.40;17.88;;;;;;;;;;4911949;28;20052;-65
2023/04/28 04:36:53;;;;;;;21.90;12.35;;;;;;;;;;4907166;28;20071;-65
2023/04/28 04:39:18;;;;;;;19.70;12.10;;;;;;;;;;4909064;28;20111;-64
2023/04/28 04:41:44;;;;;;;19.67;10.93;;;;;;;;;;4908127;28;20050;-65
2023/04/28 04:44:10;;;;;;;18.70;10.55;;;;;;;;;;4909785;29;20056;-66
2023/04/28 04:46:37;;;;;;;17.75;9.98;;;;;;;;;;4911799;28;20059;-65
2023/04/28 04:49:04;;;;;;;23.65;11.02;;;;;;;;;;4911449;28;20526;-64
2023/04/28 04:51:31;;;;;;;21.70;11.38;;;;;;;;;;4908142;29;22245;-66
2023/04/28 04:53:57;;;;;;;20.33;10.25;;;;;;;;;;4910344;28;20075;-64
2023/04/28 04:56:23;;;;;;;17.80;11.00;;;;;;;;;;4913615;28;20059;-66
2023/04/28 04:58:50;;;;;;;19.38;11.07;;;;;;;;;;4911113;28;21053;-67
2023/04/28 05:01:16;;;;;;;16.60;11.27;;;;;;;;;;4907919;28;20070;-68
2023/04/28 05:03:42;;;;;;;18.95;11.70;;;;;;;;;;4911942;28;21382;-64
2023/04/28 05:06:08;;;;;;;21.38;10.60;;;;;;;;;;4918500;28;20535;-65
2023/04/28 05:08:35;;;;;;;20.92;11.30;;;;;;;;;;4906340;28;20047;-66
2023/04/28 05:11:02;;;;;;;21.95;11.52;;;;;;;;;;4911583;28;20062;-67
2023/04/28 05:13:28;;;;;;;22.38;11.75;;;;;;;;;;4917068;28;20052;-65
2023/04/28 05:15:54;;;;;;;20.45;11.63;;;;;;;;;;4905642;29;20071;-66
2023/04/28 05:18:20;;;;;;;21.80;9.93;;;;;;;;;;4908438;28;20056;-67
2023/04/28 05:20:47;;;;;;;17.00;10.73;;;;;;;;;;4909474;28;20051;-68
2023/04/28 05:23:13;;;;;;;18.17;10.65;;;;;;;;;;4905920;28;21208;-65
2023/04/28 05:25:39;;;;;;;18.70;10.07;;;;;;;;;;4908021;28;20504;-67
2023/04/28 05:28:08;;;;;;;21.42;10.60;;;;;;;;;;4906630;28;20063;-66
2023/04/28 05:30:34;;;;;;;43.55;11.60;;;;;;;;;;4909829;28;20052;-65
2023/04/28 05:33:00;;;;;;;30.50;10.88;;;;;;;;;;4906033;29;20616;-67
2023/04/28 05:35:26;;;;;;;34.45;11.10;;;;;;;;;;4910735;28;20060;-67
2023/04/28 05:37:52;;;;;;;32.90;10.40;;;;;;;;;;4912522;28;20269;-67
2023/04/28 05:40:58;;;;;;;31.52;10.05;;;;;;;;;;4907563;28;20142;-63
2023/04/28 05:44:22;;;;;;;32.72;11.02;;;;;;;;;;4911367;28;20059;-65
2023/04/28 05:47:29;;;;;;;22.85;10.02;;;;;;;;;;4914030;28;20051;-65
2023/04/28 05:51:10;;;;;;;22.38;10.10;;;;;;;;;;4912646;28;20062;-64
2023/04/28 05:54:50;;;;;;;23.40;10.07;;;;;;;;;;4911819;28;20056;-67
2023/04/28 05:58:31;;;;;;;26.13;10.52;;;;;;;;;;4914650;28;20063;-63
2023/04/28 06:02:11;;;;;;;17.73;10.23;;;;;;;;;;4916103;28;21395;-66
2023/04/28 06:05:51;;;;;;;26.70;10.98;;;;;;;;;;4915053;29;20059;-66
2023/04/28 06:09:32;;;;;;;24.33;10.02;;;;;;;;;;4913146;28;20551;-67
2023/04/28 06:13:13;;;;;;;21.67;10.25;;;;;;;;;;4932274;28;20048;-64
2023/04/28 06:16:54;;;;;;;24.63;11.38;;;;;;;;;;4921740;28;20488;-66
2023/04/28 06:19:55;;;;;;;27.42;13.27;;;;;;;;;;4925756;29;20047;-68
2023/04/28 06:22:25;;;;;;;30.88;14.80;;;;;;;;;;4920868;29;20138;-64
2023/04/28 06:24:51;;;;;;;37.13;15.48;;;;;;;;;;4923198;29;20120;-63
2023/04/28 06:27:18;;;;;;;31.95;18.55;;;;;;;;;;4928046;29;20047;-66
2023/04/28 06:29:45;;;;;;;38.00;22.55;;;;;;;;;;4928805;28;20052;-65
2023/04/28 06:32:13;;;;;;;41.55;23.88;;;;;;;;;;4934942;29;20563;-65
2023/04/28 06:34:39;;;;;;;40.70;23.08;;;;;;;;;;4917600;29;21344;-67
2023/04/28 06:37:06;;;;;;;34.90;23.77;;;;;;;;;;4923520;28;20110;-68
2023/04/28 06:39:32;;;;;;;36.25;22.55;;;;;;;;;;4929147;29;20055;-64
2023/04/28 06:42:00;;;;;;;36.38;22.08;;;;;;;;;;4930578;29;20048;-65
2023/04/28 06:44:26;;;;;;;38.78;22.48;;;;;;;;;;4928062;29;20067;-64
2023/04/28 06:46:52;;;;;;;41.10;22.98;;;;;;;;;;4929570;29;20055;-62
2023/04/28 06:49:18;;;;;;;30.52;20.83;;;;;;;;;;4923130;29;20112;-64
2023/04/28 06:51:45;;;;;;;34.20;21.02;;;;;;;;;;4920003;29;20497;-65
2023/04/28 06:54:11;;;;;;;32.70;18.90;;;;;;;;;;4922701;29;20051;-66
2023/04/28 06:56:37;;;;;;;42.13;21.38;;;;;;;;;;4918768;29;20083;-65
2023/04/28 06:59:03;;;;;;;39.25;21.77;;;;;;;;;;4913507;29;20071;-67
2023/04/28 07:01:29;;;;;;;33.97;19.75;;;;;;;;;;4917498;29;20071;-67
2023/04/28 07:03:56;;;;;;;30.98;20.98;;;;;;;;;;4926239;29;20052;-66
2023/04/28 07:06:23;;;;;;;28.90;20.65;;;;;;;;;;4923194;29;20048;-66
2023/04/28 07:08:48;;;;;;;31.83;22.55;;;;;;;;;;4931903;29;20063;-65
2023/04/28 07:11:15;;;;;;;36.72;25.23;;;;;;;;;;4931674;29;20052;-65
2023/04/28 07:13:41;;;;;;;38.53;24.77;;;;;;;;;;4927203;29;20411;-62
2023/04/28 07:16:09;;;;;;;36.17;24.42;;;;;;;;;;4925575;29;20056;-66
2023/04/28 07:18:34;;;;;;;35.35;24.23;;;;;;;;;;4931462;28;20047;-66
2023/04/28 07:21:02;;;;;;;33.20;23.25;;;;;;;;;;4925437;29;20051;-67
2023/04/28 07:23:28;;;;;;;44.05;22.25;;;;;;;;;;4927573;29;20054;-65
2023/04/28 07:25:54;;;;;;;43.55;22.67;;;;;;;;;;4922703;29;20519;-66
2023/04/28 07:28:21;;;;;;;37.33;22.08;;;;;;;;;;4928118;29;20060;-70
2023/04/28 07:30:49;;;;;;;35.55;20.50;;;;;;;;;;4927749;29;20082;-67
2023/04/28 07:33:15;;;;;;;36.08;21.05;;;;;;;;;;4929810;28;20489;-65
2023/04/28 07:35:41;;;;;;;30.70;20.98;;;;;;;;;;4912549;29;20416;-66
2023/04/28 07:38:08;;;;;;;31.85;20.40;;;;;;;;;;4928496;29;20587;-66
2023/04/28 07:40:35;;;;;;;30.25;20.45;;;;;;;;;;4942807;28;20066;-65
2023/04/28 07:43:01;;;;;;;32.03;18.60;;;;;;;;;;4924232;29;20056;-65
2023/04/28 07:45:27;;;;;;;25.48;16.00;;;;;;;;;;4921909;29;20051;-65
2023/04/28 07:47:54;;;;;;;27.02;15.43;;;;;;;;;;4928895;29;20040;-66
2023/04/28 07:50:20;;;;;;;26.20;15.73;;;;;;;;;;4929473;29;20051;-66
2023/04/28 07:52:47;;;;;;;21.58;14.70;;;;;;;;;;4930631;29;20468;-68
2023/04/28 07:55:14;;;;;;;21.17;14.35;;;;;;;;;;4923233;29;20060;-64
2023/04/28 07:57:41;;;;;;;19.42;12.82;;;;;;;;;;4929445;29;20043;-65
2023/04/28 08:00:08;;;;;;;15.60;10.85;;;;;;;;;;4923383;29;20497;-67
2023/04/28 08:02:34;;;;;;;17.30;11.52;;;;;;;;;;4928617;29;20055;-65
2023/04/28 08:05:01;;;;;;;18.73;10.18;;;;;;;;;;4930192;29;20126;-66
2023/04/28 08:07:27;;;;;;;18.05;11.13;;;;;;;;;;4926630;29;20051;-67
2023/04/28 08:09:55;;;;;;;14.23;9.25;;;;;;;;;;4931001;29;20105;-67
2023/04/28 08:12:21;;;;;;;17.90;9.98;;;;;;;;;;4947606;28;20055;-66
2023/04/28 08:14:47;;;;;;;19.83;11.20;;;;;;;;;;4919254;29;20051;-66
2023/04/28 08:17:13;;;;;;;20.70;10.90;;;;;;;;;;4927558;29;20055;-66
2023/04/28 08:19:39;;;;;;;21.42;10.57;;;;;;;;;;4919914;28;20056;-67
2023/04/28 08:22:06;;;;;;;17.52;11.25;;;;;;;;;;4910828;28;20050;-65
2023/04/28 08:24:33;;;;;;;16.77;11.13;;;;;;;;;;4905618;29;20052;-66
2023/04/28 08:27:02;;;;;;;14.68;11.02;;;;;;;;;;4911852;28;20074;-67
2023/04/28 08:29:29;;;;;;;17.90;11.63;;;;;;;;;;4909949;28;20075;-69
2023/04/28 08:31:55;;;;;;;14.85;11.43;;;;;;;;;;4910709;28;20501;-66
2023/04/28 08:34:21;;;;;;;24.63;11.90;;;;;;;;;;4908098;28;20068;-66
2023/04/28 08:36:47;;;;;;;19.60;12.00;;;;;;;;;;4910652;28;20138;-66
2023/04/28 08:39:13;;;;;;;19.05;10.70;;;;;;;;;;4909718;28;20052;-66
2023/04/28 08:41:41;;;;;;;20.00;9.88;;;;;;;;;;4908509;28;20136;-70
2023/04/28 08:44:10;;;;;;;18.90;9.45;;;;;;;;;;4910778;28;20070;-66
2023/04/28 08:46:47;;;;;;;15.50;8.82;;;;;;;;;;4912319;28;20067;-66
2023/04/28 08:49:17;;;;;;;19.42;9.23;;;;;;;;;;4905003;29;20052;-66
2023/04/28 08:51:46;;;;;;;17.20;8.57;;;;;;;;;;4911103;28;20047;-66
2023/04/28 08:54:15;;;;;;;15.38;8.18;;;;;;;;;;4909693;29;20800;-66
2023/04/28 08:57:00;;;;;;;16.08;8.25;;;;;;;;;;4909917;28;20062;-69
2023/04/28 08:59:31;;;;;;;17.38;10.95;;;;;;;;;;4909891;28;20062;-64
2023/04/28 09:01:59;;;;;;;15.70;8.23;;;;;;;;;;4910144;28;20075;-66
2023/04/28 09:04:30;;;;;;;13.13;7.13;;;;;;;;;;4908931;28;20175;-66
2023/04/28 09:06:56;;;;;;;12.15;6.22;;;;;;;;;;4909979;28;22367;-65
2023/04/28 09:09:25;;;;;;;12.68;6.57;;;;;;;;;;4914802;29;20080;-66
2023/04/28 09:11:58;;;;;;;12.60;5.70;;;;;;;;;;4915109;28;20063;-65
2023/04/28 09:14:25;;;;;;;13.02;6.43;;;;;;;;;;4913128;28;20103;-65
2023/04/28 09:16:54;;;;;;;11.90;7.10;;;;;;;;;;4915415;28;20056;-64
2023/04/28 09:19:21;;;;;;;12.43;6.43;;;;;;;;;;4912670;29;20060;-65
2023/04/28 09:21:50;;;;;;;13.85;6.55;;;;;;;;;;4913587;28;20056;-66
2023/04/28 09:24:41;;;;;;;13.82;7.07;;;;;;;;;;4924216;28;20047;-66
2023/04/28 09:27:10;;;;;;;18.60;7.80;;;;;;;;;;4912103;28;20500;-66
2023/04/28 09:29:53;;;;;;;10.55;6.80;;;;;;;;;;4912089;28;20115;-64
2023/04/28 09:32:20;;;;;;;13.90;6.80;;;;;;;;;;4916797;28;20056;-66
2023/04/28 09:34:52;;;;;;;13.60;6.65;;;;;;;;;;4914147;28;20044;-67
2023/04/28 09:37:20;;;;;;;13.15;5.68;;;;;;;;;;4911589;29;20098;-64
2023/04/28 09:39:48;;;;;;;14.98;6.05;;;;;;;;;;4911776;28;20504;-69
2023/04/28 09:42:37;;;;;;;14.10;6.35;;;;;;;;;;4912336;28;20058;-67
2023/04/28 09:45:11;;;;;;;9.98;5.60;;;;;;;;;;4916661;28;20051;-65
2023/04/28 09:47:39;;;;;;;10.70;6.07;;;;;;;;;;4910321;28;20528;-67
2023/04/28 09:50:11;;;;;;;11.57;5.43;;;;;;;;;;4908581;28;20100;-65
2023/04/28 09:52:37;;;;;;;12.38;5.43;;;;;;;;;;4915149;28;20254;-65
2023/04/28 09:55:10;;;;;;;12.90;5.30;;;;;;;;;;4911245;29;20070;-65
2023/04/28 09:57:37;;;;;;;12.00;5.43;;;;;;;;;;4912600;28;20505;-66
2023/04/28 10:00:43;;;;;;;11.82;4.90;;;;;;;;;;4912835;28;20534;-67
2023/04/28 10:04:30;;;;;;;14.32;5.43;;;;;;;;;;4911500;28;20055;-64
2023/04/28 10:08:07;;;;;;;11.40;5.53;;;;;;;;;;4911869;28;20157;-66
2023/04/28 10:11:48;;;;;;;12.18;5.15;;;;;;;;;;4921400;28;20052;-67
2023/04/28 10:15:28;;;;;;;8.93;4.45;;;;;;;;;;4914672;28;20047;-68
2023/04/28 10:19:08;;;;;;;10.93;4.70;;;;;;;;;;4914954;28;20063;-64
2023/04/28 10:22:44;;;;;;;10.90;4.72;;;;;;;;;;4912017;28;20513;-64
2023/04/28 10:26:24;;;;;;;14.38;4.78;;;;;;;;;;4912709;28;20048;-66
2023/04/28 10:30:05;;;;;;;11.27;4.55;;;;;;;;;;4910396;28;20043;-66
2023/04/28 10:33:12;;;;;;;9.90;4.32;;;;;;;;;;4910891;28;20381;-66
2023/04/28 10:37:10;;;;;;;14.77;4.90;;;;;;;;;;4911790;28;20086;-67
2023/04/28 10:40:49;;;;;;;11.95;5.50;;;;;;;;;;4908923;28;20051;-66
2023/04/28 10:44:28;;;;;;;18.75;4.75;;;;;;;;;;4911660;28;20757;-65
2023/04/28 10:48:20;;;;;;;16.35;5.60;;;;;;;;;;4909065;28;20130;-68
2023/04/28 10:52:00;;;;;;;14.15;6.07;;;;;;;;;;4914113;28;20063;-69
2023/04/28 10:55:49;;;;;;;11.55;5.43;;;;;;;;;;4911856;28;20468;-65
2023/04/28 10:59:46;;;;;;;12.13;5.15;;;;;;;;;;4904817;28;20076;-66
2023/04/28 11:03:26;;;;;;;10.65;4.80;;;;;;;;;;4911121;28;20593;-67
2023/04/28 11:07:27;;;;;;;8.43;4.53;;;;;;;;;;4913918;29;20202;-66
2023/04/28 11:11:07;;;;;;;11.50;4.60;;;;;;;;;;4916733;28;20062;-66
2023/04/28 11:14:19;;;;;;;9.90;3.30;;;;;;;;;;4909463;28;20150;-66
2023/04/28 11:17:59;;;;;;;8.68;3.20;;;;;;;;;;4908299;28;20685;-67
2023/04/28 11:21:40;;;;;;;7.80;3.50;;;;;;;;;;4921036;28;21907;-67
2023/04/28 11:25:21;;;;;;;6.32;3.40;;;;;;;;;;4909080;28;20196;-67
2023/04/28 11:29:10;;;;;;;8.68;3.00;;;;;;;;;;4910182;28;20105;-67
2023/04/28 11:32:50;;;;;;;10.95;3.33;;;;;;;;;;4907126;28;20451;-65
2023/04/28 11:36:45;;;;;;;9.90;3.30;;;;;;;;;;4909366;28;20182;-65
2023/04/28 11:40:29;;;;;;;10.18;2.92;;;;;;;;;;4910815;28;20051;-65
2023/04/28 11:44:10;;;;;;;12.38;3.45;;;;;;;;;;4906396;28;20056;-66
2023/04/28 11:47:50;;;;;;;11.38;3.28;;;;;;;;;;4910877;28;20627;-64
2023/04/28 11:51:31;;;;;;;7.53;3.10;;;;;;;;;;4909845;28;20136;-66
2023/04/28 11:55:14;;;;;;;9.13;2.60;;;;;;;;;;4909697;28;20060;-69
2023/04/28 11:59:00;;;;;;;12.77;2.47;;;;;;;;;;4913084;28;20171;-65
2023/04/28 12:02:46;;;;;;;6.63;2.42;;;;;;;;;;4907032;28;20177;-66
2023/04/28 12:06:28;;;;;;;9.02;2.30;;;;;;;;;;4911832;28;20191;-65
2023/04/28 12:10:08;;;;;;;7.85;2.55;;;;;;;;;;4918134;28;20342;-66
2023/04/28 12:13:55;;;;;;;6.53;2.40;;;;;;;;;;4899377;28;20078;-67
2023/04/28 12:17:53;;;;;;;7.95;2.10;;;;;;;;;;4904449;28;20055;-67
2023/04/28 12:21:41;;;;;;;8.60;2.20;;;;;;;;;;4914462;28;20963;-66
2023/04/28 12:25:22;;;;;;;9.98;2.38;;;;;;;;;;4910980;28;20257;-67
2023/04/28 12:29:03;;;;;;;12.52;2.33;;;;;;;;;;4903400;29;20043;-71
2023/04/28 12:32:58;;;;;;;6.60;1.73;;;;;;;;;;4910539;28;20535;-70
2023/04/28 12:36:40;;;;;;;6.32;1.98;;;;;;;;;;4912239;28;20266;-72
2023/04/28 12:40:20;;;;;;;6.70;2.20;;;;;;;;;;4909125;28;20089;-70
2023/04/28 12:44:03;;;;;;;4.82;1.75;;;;;;;;;;4910773;29;20142;-72
2023/04/28 12:47:44;;;;;;;7.07;1.80;;;;;;;;;;4913527;28;20066;-69
2023/04/28 12:51:29;;;;;;;7.05;1.95;;;;;;;;;;4913562;28;20051;-73
2023/04/28 12:55:11;;;;;;;5.43;1.50;;;;;;;;;;4913521;28;20063;-72
2023/04/28 12:58:54;;;;;;;6.78;2.10;;;;;;;;;;4913503;28;20051;-69
2023/04/28 13:02:34;;;;;;;9.50;1.80;;;;;;;;;;4916215;28;20058;-66
2023/04/28 13:06:15;;;;;;;10.07;2.70;;;;;;;;;;4913159;28;20056;-72
2023/04/28 13:09:55;;;;;;;7.20;2.10;;;;;;;;;;4913993;28;20527;-72
2023/04/28 13:13:36;;;;;;;5.72;1.80;;;;;;;;;;4911676;28;20066;-69
2023/04/28 13:17:16;;;;;;;7.85;1.98;;;;;;;;;;4914007;28;20050;-70
2023/04/28 13:20:56;;;;;;;5.18;1.67;;;;;;;;;;4918736;28;20076;-69
2023/04/28 13:24:37;;;;;;;6.93;2.00;;;;;;;;;;4912039;28;20066;-68
2023/04/28 13:28:17;;;;;;;9.68;2.13;;;;;;;;;;4911938;28;20376;-70
2023/04/28 13:31:58;;;;;;;6.60;2.30;;;;;;;;;;4910805;28;20056;-68
2023/04/28 13:35:38;;;;;;;12.82;2.47;;;;;;;;;;4910803;28;20139;-66
2023/04/28 13:39:19;;;;;;;5.32;1.88;;;;;;;;;;4908426;28;20099;-70
2023/04/28 13:42:59;;;;;;;5.60;2.22;;;;;;;;;;4916733;28;20052;-69
2023/04/28 13:46:39;;;;;;;5.75;2.10;;;;;;;;;;4913013;28;20040;-69
2023/04/28 13:50:19;;;;;;;7.65;2.08;;;;;;;;;;4913709;28;20151;-69
2023/04/28 13:54:07;;;;;;;8.00;2.10;;;;;;;;;;4910976;28;20115;-70
2023/04/28 13:57:41;;;;;;;6.57;1.90;;;;;;;;;;4913670;28;20092;-68
2023/04/28 14:01:22;;;;;;;4.32;1.80;;;;;;;;;;4908676;29;20052;-66
2023/04/28 14:05:03;;;;;;;5.15;1.65;;;;;;;;;;4905746;28;20068;-68
2023/04/28 14:08:43;;;;;;;7.13;1.70;;;;;;;;;;4911225;29;20059;-65
2023/04/28 14:12:24;;;;;;;7.43;1.83;;;;;;;;;;4910428;28;20059;-68
2023/04/28 14:16:04;;;;;;;7.05;2.20;;;;;;;;;;4904226;28;20463;-69
2023/04/28 14:19:46;;;;;;;8.18;1.90;;;;;;;;;;4915792;28;20040;-67
2023/04/28 14:23:27;;;;;;;4.93;1.70;;;;;;;;;;4909278;28;20077;-67
2023/04/28 14:27:08;;;;;;;18.17;2.28;;;;;;;;;;4910591;28;20047;-71
2023/04/28 14:30:48;;;;;;;8.15;1.90;;;;;;;;;;4910137;28;20452;-72
2023/04/28 14:34:29;;;;;;;8.65;1.60;;;;;;;;;;4910573;28;20062;-69
2023/04/28 14:38:09;;;;;;;8.48;1.67;;;;;;;;;;4908273;28;20410;-67
2023/04/28 14:41:49;;;;;;;4.43;1.30;;;;;;;;;;4912049;28;20276;-68
2023/04/28 14:45:30;;;;;;;9.38;1.70;;;;;;;;;;4910626;28;21016;-66
2023/04/28 14:49:10;;;;;;;7.10;1.67;;;;;;;;;;4914661;28;20135;-68
2023/04/28 14:52:50;;;;;;;13.07;2.05;;;;;;;;;;4913209;28;20061;-68
2023/04/28 14:56:30;;;;;;;8.02;1.80;;;;;;;;;;4908093;28;20410;-66
2023/04/28 15:00:11;;;;;;;5.45;1.75;;;;;;;;;;4913077;28;20050;-69
2023/04/28 15:03:51;;;;;;;13.55;2.10;;;;;;;;;;4913038;28;20559;-67
2023/04/28 15:07:31;;;;;;;7.20;1.73;;;;;;;;;;4909742;28;20474;-69
2023/04/28 15:11:12;;;;;;;7.65;2.45;;;;;;;;;;4916115;28;20058;-66
2023/04/28 15:14:52;;;;;;;6.22;1.80;;;;;;;;;;4914026;28;20070;-68
2023/04/28 15:18:33;;;;;;;8.60;2.13;;;;;;;;;;4912439;28;20091;-66
2023/04/28 15:22:13;;;;;;;6.43;1.92;;;;;;;;;;4920997;28;20202;-69
2023/04/28 15:25:53;;;;;;;8.45;1.92;;;;;;;;;;4908341;28;20056;-65
2023/04/28 15:29:34;;;;;;;9.85;2.65;;;;;;;;;;4907407;28;20058;-68
2023/04/28 15:33:17;;;;;;;8.55;2.10;;;;;;;;;;4910499;28;20142;-68
2023/04/28 15:36:55;;;;;;;6.68;2.10;;;;;;;;;;4909528;29;20066;-66
2023/04/28 15:40:36;;;;;;;11.90;2.40;;;;;;;;;;4909000;28;20102;-68
2023/04/28 15:44:17;;;;;;;6.82;1.88;;;;;;;;;;4906043;28;20512;-68
2023/04/28 15:47:58;;;;;;;12.15;2.63;;;;;;;;;;4908783;28;20058;-66
2023/04/28 15:51:38;;;;;;;7.03;2.13;;;;;;;;;;4906699;28;20093;-68
2023/04/28 15:55:19;;;;;;;6.95;2.17;;;;;;;;;;4908372;28;20058;-69
2023/04/28 15:58:59;;;;;;;7.05;1.77;;;;;;;;;;4910010;28;20062;-68
2023/04/28 16:02:39;;;;;;;8.70;2.10;;;;;;;;;;4907595;28;20079;-68
2023/04/28 16:06:20;;;;;;;9.82;1.92;;;;;;;;;;4907682;28;20406;-68
2023/04/28 16:10:01;;;;;;;8.93;1.98;;;;;;;;;;4913249;28;20057;-66
2023/04/28 16:13:42;;;;;;;11.35;2.00;;;;;;;;;;4911516;28;20066;-66
2023/04/28 16:17:22;;;;;;;8.38;2.20;;;;;;;;;;4913398;28;20415;-67
2023/04/28 16:21:02;;;;;;;4.97;1.65;;;;;;;;;;4914347;28;20060;-66
2023/04/28 16:24:44;;;;;;;11.55;2.10;;;;;;;;;;4908562;28;21996;-68
2023/04/28 16:28:23;;;;;;;6.00;1.80;;;;;;;;;;4902200;28;20138;-66
2023/04/28 16:32:05;;;;;;;5.85;1.58;;;;;;;;;;4908311;28;20059;-68
2023/04/28 16:35:46;;;;;;;8.25;2.13;;;;;;;;;;4908880;28;20052;-66
2023/04/28 16:39:26;;;;;;;9.50;1.92;;;;;;;;;;4910692;28;20452;-65
2023/04/28 16:43:07;;;;;;;7.57;1.73;;;;;;;;;;4909416;28;20151;-68
2023/04/28 16:46:48;;;;;;;4.50;1.67;;;;;;;;;;4907373;28;20086;-68
2023/04/28 16:50:31;;;;;;;7.50;1.80;;;;;;;;;;4909860;28;20059;-68
2023/04/28 16:54:11;;;;;;;7.63;1.63;;;;;;;;;;4903959;28;20055;-68
2023/04/28 16:57:55;;;;;;;11.50;1.83;;;;;;;;;;4904665;29;20055;-67